Latest Weather Observations for Albury

IDV60801

Issued at 4:35 pm EST Thursday 28 August 2014 (issued every 30 minutes, with the page automatically refreshed every 10 minutes)

About weather observations | Map of weather stations | Latest weather observations for VIC | Other Formats
Station Details ID: 072160 Name: ALBURY AIRPORT AWS Lat: -36.07 Lon: 146.95 Height: 163.5 m
Data from the previous 72 hours. | See also: Recent months at Albury
Date/Time
EST
Temp
°C
App
Temp
°C
Dew
Point
Rel
Hum
%
Delta-T
°C
Wind Press
QNH
hPa
Press
MSL
hPa
Rain
since 9 am
mm
Dir
 
Spd
km/h
Gust
km/h
Spd
kts
Gust
kts
28/04:30pm 17.4 14.5 8.0 54 4.8 W 13 19 7 10 1026.8 1027.1 0.0
28/04:00pm 17.7 14.8 8.0 53 5.0 W 13 17 7 9 1026.7 1027.0 0.0
28/03:30pm 18.2 15.4 7.0 48 5.7 W 11 17 6 9 1026.8 1027.1 0.0
28/03:00pm 18.2 16.2 6.1 45 6.0 W 6 15 3 8 1026.8 1027.1 0.0
28/02:30pm 18.4 16.4 7.2 48 5.7 W 7 13 4 7 1026.9 1027.2 0.0
28/02:00pm 17.8 15.4 5.4 44 6.0 SSW 7 13 4 7 1027.1 1027.4 0.0
28/01:30pm 17.3 15.0 5.9 47 5.6 E 7 9 4 5 1027.4 1027.7 0.0
28/01:00pm 17.4 15.0 6.9 50 5.2 ENE 9 13 5 7 1027.9 1028.2 0.0
28/12:30pm 16.1 13.5 6.3 52 4.8 ESE 9 11 5 6 1028.2 1028.5 0.0
28/12:00pm 15.5 13.4 6.8 56 4.3 SE 7 13 4 7 1028.7 1028.9 0.0
28/11:30am 15.2 12.7 6.7 57 4.2 E 9 13 5 7 1029.3 1029.6 0.0
28/11:00am 13.9 11.8 6.5 61 3.6 SE 7 9 4 5 1029.4 1029.7 0.0
28/10:30am 12.8 11.8 7.3 69 2.7 SE 2 9 1 5 1029.7 1030.0 0.0
28/10:00am 11.4 9.2 6.1 70 2.5 ESE 7 11 4 6 1029.9 1030.2 0.0
28/09:30am 11.0 9.6 5.5 69 2.6 ENE 2 6 1 3 1030.0 1030.3 0.0
28/09:00am 9.8 8.8 5.6 75 1.9 CALM 0 0 0 0 1030.1 1030.4 0.0
28/08:30am 7.5 5.2 4.6 82 1.3 SE 6 9 3 5 1030.1 1030.4 0.0
28/08:00am 6.8 5.6 4.6 86 1.0 CALM 0 0 0 0 1030.0 1030.3 0.0
28/07:30am 4.2 1.7 3.8 97 0.2 NE 6 7 3 4 1029.7 1030.0 0.0
28/07:00am 2.8 1.2 2.4 97 0.2 CALM 0 0 0 0 1029.3 1029.6 0.0
28/06:30am 2.9 1.3 2.5 97 0.2 CALM 0 0 0 0 1029.0 1029.3 0.0
28/06:00am 3.1 1.5 2.7 97 0.2 CALM 0 0 0 0 1028.8 1029.0 0.0
28/05:30am 2.9 1.2 2.0 94 0.4 CALM 0 0 0 0 1028.6 1028.8 0.0
28/05:00am 3.9 1.4 3.5 97 0.2 NNW 6 6 3 3 1028.3 1028.6 0.0
28/04:30am 3.5 0.8 2.9 96 0.2 NNW 6 9 3 5 1028.1 1028.4 0.0
28/04:00am 3.9 2.4 3.2 95 0.3 CALM 0 0 0 0 1027.9 1028.2 0.0
28/03:30am 4.3 1.8 3.7 96 0.3 N 6 7 3 4 1027.9 1028.2 0.0
28/03:00am 4.1 1.6 3.5 96 0.2 N 6 7 3 4 1027.7 1028.0 0.0
28/02:30am 4.8 3.5 3.9 94 0.4 CALM 0 0 0 0 1027.7 1028.0 0.0
28/02:00am 4.6 3.2 3.4 92 0.5 CALM 0 0 0 0 1027.6 1027.9 0.0
28/01:30am 5.6 3.3 4.9 95 0.3 NNE 6 7 3 4 1027.8 1028.1 0.0
28/01:00am 5.2 3.9 3.9 91 0.5 CALM 0 0 0 0 1027.8 1028.1 0.0
28/12:30am 6.0 3.6 4.5 90 0.7 N 6 9 3 5 1027.6 1027.9 0.0
28/12:00am 5.8 3.2 4.3 90 0.6 NNW 7 9 4 5 1027.6 1027.9 0.0
 
Date/Time
EST
Temp
°C
App
Temp
°C
Dew
Point
Rel
Hum
%
Delta-T
°C
Wind Press
QNH
hPa
Press
MSL
hPa
Rain
since 9 am
mm
Dir
 
Spd
km/h
Gust
km/h
Spd
kts
Gust
kts
27/11:30pm 6.3 4.3 4.6 89 0.7 N 4 6 2 3 1027.6 1027.9 0.0
27/11:00pm 6.9 5.8 5.2 89 0.8 CALM 0 0 0 0 1027.6 1027.9 0.0
27/10:30pm 7.5 6.5 5.6 88 0.9 CALM 0 0 0 0 1027.5 1027.8 0.0
27/10:00pm 6.8 5.6 4.8 87 0.9 CALM 0 4 0 2 1027.5 1027.8 0.0
27/09:30pm 7.8 6.1 5.8 87 0.9 ENE 4 6 2 3 1027.2 1027.5 0.0
27/09:00pm 8.7 6.6 5.8 82 1.3 ENE 6 7 3 4 1027.0 1027.3 0.0
27/08:30pm 8.7 6.5 5.4 80 1.5 E 6 7 3 4 1026.9 1027.2 0.0
27/08:00pm 10.0 9.0 5.8 75 1.9 CALM 0 0 0 0 1026.8 1027.1 0.0
27/07:30pm 11.6 10.7 6.1 69 2.6 CALM 0 0 0 0 1026.6 1026.9 0.0
27/07:00pm 12.8 11.1 5.9 63 3.3 NNW 4 7 2 4 1026.2 1026.5 0.0
27/06:30pm 13.6 11.4 6.0 60 3.6 N 7 9 4 5 1026.0 1026.3 0.0
27/06:00pm 15.4 13.1 5.6 52 4.7 N 7 9 4 5 1025.8 1026.1 0.0
27/05:30pm 16.6 14.7 6.7 52 4.9 NE 6 7 3 4 1025.5 1025.8 0.0
27/05:00pm 18.2 15.8 5.1 42 6.3 ENE 7 9 4 5 1025.4 1025.7 0.0
27/04:30pm 18.7 15.9 5.2 41 6.6 E 9 13 5 7 1025.4 1025.7 0.0
27/04:00pm 18.9 17.0 6.7 45 6.1 ESE 6 9 3 5 1025.2 1025.5 0.0
27/03:30pm 18.7 15.5 2.9 35 7.4 SSE 9 13 5 7 1025.1 1025.4 0.0
27/03:00pm 18.8 16.2 6.0 43 6.3 SSE 9 13 5 7 1025.2 1025.5 0.0
27/02:30pm 18.4 16.3 8.4 52 5.2 SSE 9 13 5 7 1025.3 1025.6 0.0
27/02:00pm 18.0 16.4 8.8 55 4.8 ESE 7 11 4 6 1025.4 1025.7 0.0
27/01:30pm 17.8 15.8 8.6 55 4.8 ESE 9 13 5 7 1025.6 1025.9 0.0
27/01:00pm 17.4 16.4 8.8 57 4.5 SSE 4 11 2 6 1025.9 1026.2 0.0
27/12:30pm 16.6 14.4 7.8 56 4.5 SSE 9 11 5 6 1026.4 1026.7 0.0
27/12:00pm 16.0 13.6 7.2 56 4.4 SE 9 13 5 7 1026.9 1027.2 0.0
27/11:30am 16.0 14.0 7.2 56 4.4 E 7 13 4 7 1027.2 1027.5 0.0
27/11:00am 15.4 13.9 8.4 63 3.5 NE 6 7 3 4 1027.4 1027.7 0.0
27/10:30am 14.1 13.1 7.2 63 3.4 ENE 2 7 1 4 1027.6 1027.9 0.0
27/10:00am 13.5 11.8 7.7 68 2.9 E 6 9 3 5 1027.8 1028.1 0.0
27/09:30am 12.4 10.9 6.7 68 2.7 E 4 7 2 4 1027.8 1028.1 0.0
27/09:00am 11.6 10.8 6.7 72 2.3 CALM 0 0 0 0 1027.9 1028.2 0.0
27/08:30am 10.1 9.3 6.3 77 1.8 CALM 0 0 0 0 1027.8 1028.1 0.0
27/08:00am 8.0 7.0 5.5 84 1.1 CALM 0 0 0 0 1027.8 1028.1 0.0
27/07:30am 5.7 4.2 5.1 96 0.3 NE 2 6 1 3 1027.3 1027.6 0.0
27/07:00am 4.3 3.0 3.9 97 0.2 CALM 0 0 0 0 1026.9 1027.2 0.0
27/06:30am 3.8 2.3 3.1 95 0.3 CALM 0 0 0 0 1026.6 1026.9 0.0
27/06:00am 4.2 2.8 3.5 95 0.3 CALM 0 0 0 0 1026.5 1026.8 0.0
27/05:30am 4.4 3.0 3.5 94 0.4 CALM 0 0 0 0 1026.4 1026.7 0.0
27/05:00am 4.7 2.2 4.0 95 0.3 N 6 7 3 4 1026.4 1026.7 0.0
27/04:30am 4.8 2.4 4.1 95 0.3 N 6 9 3 5 1026.3 1026.6 0.0
27/04:00am 5.0 3.8 4.4 96 0.3 CALM 0 0 0 0 1026.2 1026.5 0.0
27/03:30am 4.6 3.2 3.7 94 0.4 CALM 0 0 0 0 1026.2 1026.5 0.0
27/03:00am 4.6 3.2 3.3 91 0.5 CALM 0 0 0 0 1026.2 1026.5 0.0
27/02:30am 5.7 3.7 4.5 92 0.5 E 4 7 2 4 1026.3 1026.6 0.0
27/02:00am 6.1 5.0 5.1 93 0.4 CALM 0 0 0 0 1026.4 1026.7 0.0
27/01:30am 6.8 5.1 5.7 93 0.5 N 4 6 2 3 1026.5 1026.8 0.0
27/01:00am 5.9 4.2 4.2 89 0.7 NE 2 7 1 4 1026.5 1026.8 0.0
27/12:30am 7.1 6.1 5.6 90 0.7 CALM 0 0 0 0 1026.6 1026.9 0.0
27/12:00am 6.8 4.9 5.0 88 0.8 N 4 7 2 4 1026.6 1026.9 0.0
 
Date/Time
EST
Temp
°C
App
Temp
°C
Dew
Point
Rel
Hum
%
Delta-T
°C
Wind Press
QNH
hPa
Press
MSL
hPa
Rain
since 9 am
mm
Dir
 
Spd
km/h
Gust
km/h
Spd
kts
Gust
kts
26/11:30pm 7.9 7.0 5.9 87 0.9 CALM 0 0 0 0 1026.5 1026.8 0.0
26/11:00pm 8.2 7.2 5.8 85 1.1 CALM 0 0 0 0 1026.4 1026.7 0.0
26/10:30pm 9.0 7.0 6.4 84 1.2 NNW 6 9 3 5 1026.3 1026.6 0.0
26/10:00pm 8.7 6.6 5.8 82 1.3 N 6 7 3 4 1026.2 1026.5 0.0
26/09:30pm 9.4 8.6 6.3 81 1.4 CALM 0 0 0 0 1026.1 1026.4 0.0
26/09:00pm 10.1 9.3 6.6 79 1.6 CALM 0 0 0 0 1025.9 1026.2 0.0
26/08:30pm 10.2 8.6 6.4 77 1.8 N 4 7 2 4 1025.6 1025.9 0.0
26/08:00pm 11.8 10.0 7.3 74 2.2 NNW 6 9 3 5 1025.4 1025.7 0.0
26/07:30pm 12.6 11.9 7.1 69 2.7 CALM 0 0 0 0 1025.2 1025.5 0.0
26/07:00pm 13.9 12.8 7.0 63 3.4 NNE 2 7 1 4 1025.0 1025.3 0.0
26/06:30pm 14.5 13.3 6.6 59 3.9 ESE 2 7 1 4 1024.7 1025.0 0.0
26/06:00pm 16.0 15.4 7.2 56 4.4 CALM 0 0 0 0 1024.5 1024.8 0.0
26/05:30pm 17.5 15.5 6.4 48 5.5 S 6 7 3 4 1024.4 1024.7 0.0
26/05:00pm 17.4 14.7 7.2 51 5.1 SSW 11 13 6 7 1024.1 1024.4 0.0
26/04:30pm 19.4 17.3 5.8 41 6.8 S 6 13 3 7 1023.9 1024.2 0.0
26/04:00pm 20.0 17.7 7.4 44 6.5 E 9 15 5 8 1023.9 1024.2 0.0
26/03:30pm 19.8 16.8 6.2 41 6.8 ENE 11 17 6 9 1023.8 1024.1 0.0
26/03:00pm 19.8 15.9 5.5 39 7.1 E 15 22 8 12 1023.8 1024.1 0.0
26/02:30pm 20.0 15.9 7.7 45 6.4 E 19 24 10 13 1023.8 1024.1 0.0
26/02:00pm 19.3 15.0 6.8 44 6.3 SE 19 24 10 13 1024.0 1024.3 0.0
26/01:30pm 18.8 15.5 7.9 49 5.6 SSE 15 24 8 13 1024.2 1024.5 0.0
26/01:00pm 18.4 14.8 6.9 47 5.8 SSE 15 22 8 12 1024.5 1024.8 0.0
26/12:30pm 18.9 15.2 8.0 49 5.6 SE 17 24 9 13 1024.8 1025.1 0.0
26/12:00pm 18.5 14.5 8.2 51 5.3 SSE 19 26 10 14 1025.1 1025.4 0.0
26/11:30am 17.7 14.5 8.3 54 4.9 SE 15 20 8 11 1025.4 1025.7 0.0
26/11:00am 17.2 13.2 8.1 55 4.6 SE 19 26 10 14 1025.7 1026.0 0.0
26/10:30am 16.9 14.0 8.3 57 4.4 SE 13 22 7 12 1025.8 1026.1 0.0
26/10:00am 16.2 12.1 7.9 58 4.2 SSE 19 24 10 13 1025.8 1026.1 0.0
26/09:30am 15.5 11.3 7.5 59 4.0 SSE 19 30 10 16 1025.9 1026.2 0.0
26/09:00am 14.7 10.9 7.7 63 3.5 SE 17 24 9 13 1025.9 1026.2 0.0
26/08:30am 13.5 10.4 7.3 66 3.1 SSE 13 20 7 11 1025.8 1026.1 0.0
26/08:00am 10.7 9.0 7.6 81 1.5 NNE 6 7 3 4 1025.7 1026.0 0.0
26/07:30am 7.4 5.4 6.3 93 0.5 NNW 6 7 3 4 1025.5 1025.8 0.0
26/07:00am 5.4 2.4 4.1 91 0.6 NW 9 11 5 6 1025.3 1025.6 0.0
26/06:30am 5.5 2.9 4.2 91 0.6 NW 7 9 4 5 1025.0 1025.3 0.0
26/06:00am 5.3 2.3 4.1 92 0.5 NW 9 9 5 5 1024.8 1025.1 0.0
26/05:30am 5.5 3.6 3.0 84 1.0 ESE 2 9 1 5 1024.6 1024.9 0.0
26/05:00am 5.9 4.3 4.7 92 0.5 E 2 9 1 5 1024.5 1024.8 0.0
26/04:30am 5.0 2.0 4.0 93 0.4 NNW 9 13 5 7 1024.4 1024.7 0.0
26/04:00am 5.0 2.5 3.8 92 0.5 NNE 6 7 3 4 1024.4 1024.7 0.0
26/03:30am 4.9 2.8 3.7 92 0.5 N 4 7 2 4 1024.4 1024.7 0.0
26/03:00am 5.4 3.0 4.1 91 0.6 NNW 6 6 3 3 1024.3 1024.6 0.0
26/02:30am 6.1 4.8 3.9 86 0.9 CALM 0 0 0 0 1024.6 1024.9 0.0
26/02:00am 7.1 5.2 4.8 85 1.0 ENE 4 9 2 5 1024.7 1025.0 0.0
26/01:30am 7.2 5.8 5.3 88 0.9 SSE 2 7 1 4 1025.0 1025.3 0.0
26/01:00am 7.1 5.3 5.3 88 0.8 NW 4 9 2 5 1025.0 1025.3 0.0
26/12:30am 7.7 6.6 5.3 85 1.1 CALM 0 0 0 0 1025.3 1025.6 0.0
26/12:00am 7.7 6.4 6.0 89 0.8 NNW 2 9 1 5 1025.3 1025.6 0.0
 
Date/Time
EST
Temp
°C
App
Temp
°C
Dew
Point
Rel
Hum
%
Delta-T
°C
Wind Press
QNH
hPa
Press
MSL
hPa
Rain
since 9 am
mm
Dir
 
Spd
km/h
Gust
km/h
Spd
kts
Gust
kts
25/11:30pm 6.4 4.9 4.9 90 0.7 ESE 2 6 1 3 1025.2 1025.5 0.0
25/11:00pm 7.1 4.8 5.7 91 0.6 NNW 7 9 4 5 1025.3 1025.6 0.0
25/10:30pm 7.2 4.9 5.7 90 0.7 N 7 9 4 5 1025.2 1025.5 0.0
25/10:00pm 7.6 6.2 5.7 88 0.9 NE 2 6 1 3 1025.1 1025.4 0.0
25/09:30pm 8.0 7.1 6.0 87 0.9 CALM 0 0 0 0 1025.0 1025.3 0.0
25/09:00pm 7.8 6.4 5.4 85 1.1 NNE 2 6 1 3 1025.0 1025.3 0.0
25/08:30pm 8.6 7.6 5.7 82 1.3 CALM 0 0 0 0 1024.7 1025.0 0.0
25/08:00pm 9.2 8.2 5.8 79 1.6 CALM 0 0 0 0 1024.5 1024.8 0.0
25/07:30pm 10.3 9.4 6.1 75 2.0 CALM 0 0 0 0 1024.6 1024.9 0.0
25/07:00pm 12.2 10.6 6.3 67 2.8 S 4 6 2 3 1024.6 1024.9 0.0
25/06:30pm 13.0 10.8 6.1 63 3.3 SW 7 9 4 5 1024.3 1024.6 0.0
25/06:00pm 13.7 11.4 5.8 59 3.8 S 7 9 4 5 1023.9 1024.2 0.0
25/05:30pm 14.8 12.6 6.1 56 4.2 SSE 7 9 4 5 1023.7 1023.9 0.0
25/05:00pm 15.4 12.7 5.6 52 4.7 S 9 13 5 7 1023.6 1023.8 0.0

Other Formats:

Comma delimited format used in spreadsheet applications
http://www.bom.gov.au/fwo/IDV60801/IDV60801.95896.axf

JavaScript Object Notation format (JSON) in row-major order
http://www.bom.gov.au/fwo/IDV60801/IDV60801.95896.json